createdAt,value
2023-02-22T00:00:43.075Z,157.70
2023-02-22T00:03:15.615Z,163.70
2023-02-22T00:05:47.578Z,161.77
2023-02-22T00:08:16.626Z,157.63
2023-02-22T00:10:44.784Z,164.93
2023-02-22T00:13:14.928Z,160.93
2023-02-22T00:15:42.012Z,171.27
2023-02-22T00:18:16.960Z,168.73
2023-02-22T00:20:44.165Z,171.27
2023-02-22T00:23:19.021Z,184.67
2023-02-22T00:25:48.576Z,161.93
2023-02-22T00:28:17.070Z,164.17
2023-02-22T00:30:44.428Z,176.57
2023-02-22T00:33:17.406Z,173.70
2023-02-22T00:35:48.663Z,173.33
2023-02-22T00:38:19.160Z,173.17
2023-02-22T00:40:46.554Z,174.33
2023-02-22T00:43:14.270Z,165.73
2023-02-22T00:45:42.430Z,171.00
2023-02-22T00:48:10.732Z,149.80
2023-02-22T00:50:38.402Z,171.43
2023-02-22T00:53:09.347Z,163.17
2023-02-22T00:55:38.483Z,167.50
2023-02-22T00:58:06.455Z,176.97
2023-02-22T01:00:40.098Z,168.23
2023-02-22T01:03:09.547Z,169.30
2023-02-22T01:05:38.356Z,167.07
2023-02-22T01:08:08.002Z,172.90
2023-02-22T01:10:36.748Z,177.83
2023-02-22T01:13:09.425Z,167.83
2023-02-22T01:15:39.298Z,176.60
2023-02-22T01:18:07.222Z,176.87
2023-02-22T01:20:34.688Z,169.40
2023-02-22T01:23:03.966Z,168.20
2023-02-22T01:25:32.246Z,168.73
2023-02-22T01:28:01.840Z,170.07
2023-02-22T01:30:33.016Z,184.20
2023-02-22T01:33:02.922Z,174.30
2023-02-22T01:35:33.750Z,175.47
2023-02-22T01:38:02.903Z,183.23
2023-02-22T01:40:35.935Z,178.30
2023-02-22T01:43:07.054Z,187.37
2023-02-22T01:45:45.248Z,178.20
2023-02-22T01:49:10.366Z,177.13
2023-02-22T01:51:44.237Z,185.37
2023-02-22T01:54:13.988Z,181.40
2023-02-22T01:57:07.222Z,174.77
2023-02-22T01:59:37.728Z,180.60
2023-02-22T02:02:06.774Z,180.57
2023-02-22T02:04:35.237Z,181.50
2023-02-22T02:07:06.593Z,168.17
2023-02-22T02:09:40.461Z,178.50
2023-02-22T02:12:11.233Z,169.20
2023-02-22T02:14:41.652Z,179.27
2023-02-22T02:17:12.814Z,169.17
2023-02-22T02:19:51.440Z,168.07
2023-02-22T02:22:34.964Z,167.00
2023-02-22T02:25:38.543Z,165.30
2023-02-22T02:28:40.941Z,161.37
2023-02-22T02:31:21.956Z,165.23
2023-02-22T02:34:27.493Z,175.50
2023-02-22T02:37:16.552Z,170.17
2023-02-22T02:39:56.836Z,168.67
2023-02-22T02:42:31.870Z,161.63
2023-02-22T02:45:10.575Z,181.77
2023-02-22T02:47:46.519Z,180.27
2023-02-22T02:50:34.188Z,181.17
2023-02-22T02:53:04.838Z,164.47
2023-02-22T02:55:32.928Z,170.37
2023-02-22T02:58:00.936Z,168.70
2023-02-22T03:00:39.417Z,169.90
2023-02-22T03:03:28.392Z,178.83
2023-02-22T03:06:35.235Z,171.63
2023-02-22T03:09:13.941Z,174.73
2023-02-22T03:12:08.159Z,180.10
2023-02-22T03:14:48.490Z,177.47
2023-02-22T03:17:38.166Z,164.13
2023-02-22T03:20:14.259Z,167.33
2023-02-22T03:22:53.569Z,168.90
2023-02-22T03:25:43.334Z,177.83
2023-02-22T03:28:16.372Z,182.10
2023-02-22T03:30:53.261Z,182.07
2023-02-22T03:33:46.330Z,188.33
2023-02-22T03:36:28.536Z,169.37
2023-02-22T03:38:59.994Z,166.53
2023-02-22T03:41:28.885Z,188.80
2023-02-22T03:44:09.895Z,175.23
2023-02-22T03:46:41.575Z,171.97
2023-02-22T03:49:32.569Z,158.60
2023-02-22T03:52:01.218Z,172.73
2023-02-22T03:54:30.212Z,171.10
2023-02-22T03:57:08.565Z,166.23
2023-02-22T03:59:39.956Z,175.67
2023-02-22T04:02:07.165Z,171.33
2023-02-22T04:04:35.240Z,180.87
2023-02-22T04:07:04.201Z,159.17
2023-02-22T04:09:31.709Z,161.50
2023-02-22T04:11:59.132Z,171.17
2023-02-22T04:14:28.770Z,166.67
2023-02-22T04:16:58.398Z,147.33
2023-02-22T04:19:26.094Z,142.00
2023-02-22T04:21:53.751Z,145.60
2023-02-22T04:24:26.577Z,146.83
2023-02-22T04:26:55.469Z,143.70
2023-02-22T04:29:23.341Z,149.00
2023-02-22T04:31:51.058Z,160.50
2023-02-22T04:34:18.136Z,156.97
2023-02-22T04:36:45.419Z,148.60
2023-02-22T04:39:12.798Z,152.83
2023-02-22T04:41:39.816Z,157.77
2023-02-22T04:44:07.923Z,158.40
2023-02-22T04:46:36.468Z,142.70
2023-02-22T04:49:05.918Z,154.17
2023-02-22T04:51:37.743Z,160.67
2023-02-22T04:54:07.655Z,153.10
2023-02-22T04:56:37.419Z,158.90
2023-02-22T04:59:06.208Z,165.10
2023-02-22T05:01:36.057Z,156.83
2023-02-22T05:04:06.846Z,183.13
2023-02-22T05:06:34.227Z,173.53
2023-02-22T05:09:01.308Z,188.70
2023-02-22T05:11:29.371Z,181.90
2023-02-22T05:13:56.988Z,197.97
2023-02-22T05:16:24.572Z,155.53
2023-02-22T05:18:52.751Z,183.97
2023-02-22T05:21:20.348Z,174.63
2023-02-22T05:23:47.572Z,173.30
2023-02-22T05:26:16.267Z,173.33
2023-02-22T05:28:43.513Z,176.53
2023-02-22T05:31:10.834Z,179.33
2023-02-22T05:33:39.981Z,170.07
2023-02-22T05:36:07.902Z,172.37
2023-02-22T05:38:43.598Z,196.03
2023-02-22T05:41:13.250Z,194.30
2023-02-22T05:43:44.615Z,184.27
2023-02-22T05:46:13.923Z,182.70
2023-02-22T05:48:41.455Z,196.87
2023-02-22T05:51:09.754Z,190.13
2023-02-22T05:53:39.555Z,200.97
2023-02-22T05:56:08.129Z,180.00
2023-02-22T05:58:37.727Z,181.77
2023-02-22T06:01:05.018Z,190.17
2023-02-22T06:03:32.304Z,181.40
2023-02-22T06:05:59.582Z,191.37
2023-02-22T06:08:27.846Z,183.83
2023-02-22T06:10:55.707Z,190.47
2023-02-22T06:13:22.763Z,193.83
2023-02-22T06:15:50.389Z,187.10
2023-02-22T06:18:19.876Z,182.80
2023-02-22T06:20:47.009Z,198.90
2023-02-22T06:23:14.157Z,214.77
2023-02-22T06:25:44.591Z,177.53
2023-02-22T06:28:12.363Z,168.23
2023-02-22T06:30:43.873Z,184.23
2023-02-22T06:33:12.067Z,180.03
2023-02-22T06:35:39.882Z,206.93
2023-02-22T06:38:07.648Z,171.77
2023-02-22T06:40:35.028Z,164.67
2023-02-22T06:43:02.358Z,163.13
2023-02-22T06:45:30.184Z,172.20
2023-02-22T06:47:57.484Z,163.87
2023-02-22T06:50:30.292Z,174.27
2023-02-22T06:52:58.637Z,184.67
2023-02-22T06:55:31.807Z,183.10
2023-02-22T06:57:59.869Z,157.40
2023-02-22T07:00:28.851Z,189.43
2023-02-22T07:02:56.914Z,197.87
2023-02-22T07:05:25.989Z,183.97
2023-02-22T07:07:56.437Z,193.27
2023-02-22T07:10:30.539Z,166.50
2023-02-22T07:12:58.052Z,169.57
2023-02-22T07:15:27.954Z,156.50
2023-02-22T07:17:57.605Z,175.23
2023-02-22T07:20:27.677Z,169.10
2023-02-22T07:22:55.396Z,169.97
2023-02-22T07:25:24.040Z,180.03
2023-02-22T07:27:52.565Z,184.33
2023-02-22T07:30:29.061Z,180.97
2023-02-22T07:32:57.587Z,162.33
2023-02-22T07:35:28.617Z,170.93
2023-02-22T07:37:56.237Z,188.47
2023-02-22T07:40:24.798Z,183.47
2023-02-22T07:42:58.052Z,176.40
2023-02-22T07:45:33.392Z,200.73
2023-02-22T07:48:02.276Z,185.60
2023-02-22T07:50:31.880Z,193.13
2023-02-22T07:53:05.273Z,189.73
2023-02-22T07:55:33.657Z,190.50
2023-02-22T07:58:03.482Z,180.37
2023-02-22T08:00:32.842Z,185.47
2023-02-22T08:03:02.006Z,196.10
2023-02-22T08:05:30.259Z,197.10
2023-02-22T08:07:59.760Z,190.90
2023-02-22T08:10:27.377Z,193.73
2023-02-22T08:12:57.054Z,189.77
2023-02-22T08:15:42.181Z,194.00
2023-02-22T08:18:15.438Z,197.20
2023-02-22T08:20:44.439Z,188.97
2023-02-22T08:23:13.007Z,199.87
2023-02-22T08:25:40.863Z,195.97
2023-02-22T08:28:12.162Z,203.13
2023-02-22T08:30:42.966Z,190.83
2023-02-22T08:33:19.594Z,188.07
2023-02-22T08:35:52.015Z,189.17
2023-02-22T08:38:26.641Z,192.50
2023-02-22T08:40:54.464Z,184.77
2023-02-22T08:43:26.045Z,193.80
2023-02-22T08:45:57.192Z,194.83
2023-02-22T08:48:24.994Z,187.33
2023-02-22T08:50:55.244Z,185.70
2023-02-22T08:53:22.704Z,190.47
2023-02-22T08:55:49.916Z,179.13
2023-02-22T08:58:20.181Z,187.53
2023-02-22T09:00:47.521Z,188.50
2023-02-22T09:03:15.635Z,183.10
2023-02-22T09:05:44.654Z,194.73
2023-02-22T09:08:13.558Z,174.13
2023-02-22T09:10:41.710Z,176.70
2023-02-22T09:13:10.761Z,181.83
2023-02-22T09:15:39.951Z,186.70
2023-02-22T09:18:10.276Z,188.93
2023-02-22T09:20:37.553Z,173.07
2023-02-22T09:23:07.679Z,185.07
2023-02-22T09:25:35.954Z,174.33
2023-02-22T09:28:03.340Z,178.13
2023-02-22T09:30:32.719Z,177.93
2023-02-22T09:33:03.873Z,169.40
2023-02-22T09:35:36.407Z,164.83
2023-02-22T09:38:08.737Z,172.53
2023-02-22T09:40:45.382Z,154.50
2023-02-22T09:43:27.038Z,168.60
2023-02-22T09:46:19.891Z,164.30
2023-02-22T09:49:00.196Z,165.83
2023-02-22T09:51:40.338Z,160.07
2023-02-22T09:54:36.702Z,158.23
2023-02-22T09:57:19.407Z,167.73
2023-02-22T10:00:13.911Z,160.87
2023-02-22T10:02:49.841Z,170.23
2023-02-22T10:05:28.095Z,164.53
2023-02-22T10:08:11.532Z,156.67
2023-02-22T10:10:52.509Z,164.07
2023-02-22T10:13:56.723Z,156.63
2023-02-22T10:16:59.632Z,160.10
2023-02-22T10:19:38.662Z,160.60
2023-02-22T10:22:28.799Z,161.97
2023-02-22T10:25:02.880Z,144.10
2023-02-22T10:27:34.941Z,156.17
2023-02-22T10:30:23.495Z,148.03
2023-02-22T10:33:17.319Z,149.13
2023-02-22T10:35:47.052Z,145.60
2023-02-22T10:38:22.202Z,155.03
2023-02-22T10:41:08.962Z,155.60
2023-02-22T10:43:41.649Z,143.93
2023-02-22T10:46:15.296Z,133.60
2023-02-22T10:48:45.630Z,122.73
2023-02-22T10:51:13.840Z,144.47
2023-02-22T10:53:41.185Z,137.67
2023-02-22T10:56:19.605Z,139.73
2023-02-22T10:59:02.720Z,131.60
2023-02-22T11:01:33.173Z,127.57
2023-02-22T11:04:22.538Z,130.00
2023-02-22T11:07:17.010Z,119.90
2023-02-22T11:09:51.608Z,130.67
2023-02-22T11:12:23.487Z,140.80
2023-02-22T11:14:52.573Z,125.33
2023-02-22T11:17:34.114Z,128.10
2023-02-22T11:20:01.705Z,124.47
2023-02-22T11:22:40.790Z,120.10
2023-02-22T11:25:08.796Z,126.03
2023-02-22T11:27:47.221Z,120.23
2023-02-22T11:30:43.988Z,117.80
2023-02-22T11:33:25.068Z,124.23
2023-02-22T11:35:58.284Z,121.67
2023-02-22T11:38:31.234Z,123.20
2023-02-22T11:41:17.310Z,118.73
2023-02-22T11:43:51.778Z,112.87
2023-02-22T11:46:30.192Z,124.70
2023-02-22T11:49:01.628Z,119.90
2023-02-22T11:51:50.390Z,124.60
2023-02-22T11:54:32.301Z,114.70
2023-02-22T11:57:08.757Z,112.50
2023-02-22T12:00:07.448Z,123.83
2023-02-22T12:03:15.981Z,110.57
2023-02-22T12:05:59.561Z,106.73
2023-02-22T12:08:38.877Z,111.63
2023-02-22T12:11:24.004Z,112.40
2023-02-22T12:14:00.239Z,117.97
2023-02-22T12:16:46.986Z,113.53
2023-02-22T12:19:22.275Z,109.37
2023-02-22T12:22:02.330Z,114.87
2023-02-22T12:24:48.883Z,106.33
2023-02-22T12:27:30.439Z,108.17
2023-02-22T12:30:05.844Z,107.53
2023-02-22T12:32:49.611Z,100.10
2023-02-22T12:35:27.921Z,115.90
2023-02-22T12:38:04.932Z,104.33
2023-02-22T12:41:01.149Z,112.37
2023-02-22T12:43:34.558Z,114.77
2023-02-22T12:46:19.496Z,116.40
2023-02-22T12:48:54.753Z,113.83
2023-02-22T12:51:53.257Z,119.37
2023-02-22T12:54:58.101Z,112.83
2023-02-22T12:57:44.765Z,112.90
2023-02-22T13:00:43.227Z,111.87
2023-02-22T13:03:40.989Z,107.07
2023-02-22T13:06:44.268Z,110.97
2023-02-22T13:09:33.022Z,115.27
2023-02-22T13:12:15.649Z,107.90
2023-02-22T13:15:17.364Z,112.43
2023-02-22T13:18:36.484Z,106.20
2023-02-22T13:21:17.358Z,111.73
2023-02-22T13:24:03.848Z,114.17
2023-02-22T13:26:45.879Z,105.73
2023-02-22T13:29:19.974Z,107.67
2023-02-22T13:32:25.492Z,115.87
2023-02-22T13:35:05.194Z,107.50
2023-02-22T13:37:40.450Z,107.53
2023-02-22T13:40:22.675Z,111.57
2023-02-22T13:43:08.565Z,116.77
2023-02-22T13:45:42.228Z,107.70
2023-02-22T13:48:12.360Z,109.77
2023-02-22T13:51:25.045Z,109.07
2023-02-22T13:53:59.603Z,112.30
2023-02-22T13:56:31.299Z,106.07
2023-02-22T13:59:04.662Z,117.37
2023-02-22T14:01:47.886Z,115.23
2023-02-22T14:04:29.664Z,114.23
2023-02-22T14:07:26.035Z,108.23
2023-02-22T14:09:59.692Z,112.57
2023-02-22T14:12:30.081Z,108.60
2023-02-22T14:15:28.314Z,109.53
2023-02-22T14:18:02.179Z,103.80
2023-02-22T14:20:40.405Z,105.80
2023-02-22T14:23:31.503Z,103.23
2023-02-22T14:26:16.077Z,108.87
2023-02-22T14:28:54.821Z,102.97
2023-02-22T14:31:36.995Z,101.57
2023-02-22T14:34:07.811Z,101.37
2023-02-22T14:37:01.556Z,109.07
2023-02-22T14:39:51.457Z,103.20
2023-02-22T14:42:37.752Z,102.07
2023-02-22T14:45:24.900Z,106.10
2023-02-22T14:48:29.792Z,103.77
2023-02-22T14:51:15.636Z,108.60
2023-02-22T14:53:52.000Z,102.13
2023-02-22T14:56:25.086Z,102.63
2023-02-22T14:59:08.201Z,104.67
2023-02-22T15:01:55.271Z,102.27
2023-02-22T15:04:33.499Z,95.03
2023-02-22T15:07:21.628Z,100.73
2023-02-22T15:09:48.896Z,100.33
2023-02-22T15:12:29.986Z,103.70
2023-02-22T15:15:32.834Z,96.33
2023-02-22T15:17:59.977Z,97.67
2023-02-22T15:20:28.467Z,102.13
2023-02-22T15:23:00.469Z,93.60
2023-02-22T15:25:31.914Z,89.33
2023-02-22T15:28:05.378Z,100.67
2023-02-22T15:30:34.588Z,91.27
2023-02-22T15:33:26.461Z,94.03
2023-02-22T15:35:55.780Z,102.17
2023-02-22T15:38:29.804Z,93.63
2023-02-22T15:41:22.084Z,95.53
2023-02-22T15:44:23.806Z,95.43
2023-02-22T15:46:54.474Z,90.60
2023-02-22T15:49:23.711Z,92.73
2023-02-22T15:52:24.911Z,88.67
2023-02-22T15:54:53.575Z,88.43
2023-02-22T15:57:25.752Z,99.33
2023-02-22T15:59:57.198Z,93.77
2023-02-22T16:02:39.908Z,93.57
2023-02-22T16:05:14.252Z,94.27
2023-02-22T16:07:48.284Z,97.30
2023-02-22T16:10:30.345Z,93.83
2023-02-22T16:13:32.317Z,92.13
2023-02-22T16:16:24.958Z,88.93
2023-02-22T16:18:53.719Z,87.80
2023-02-22T16:21:24.118Z,92.07
2023-02-22T16:24:01.353Z,95.80
2023-02-22T16:26:35.056Z,90.37
2023-02-22T16:29:06.780Z,98.97
2023-02-22T16:31:39.553Z,101.43
2023-02-22T16:34:09.668Z,89.43
2023-02-22T16:36:50.341Z,89.60
2023-02-22T16:39:19.406Z,87.57
2023-02-22T16:41:47.091Z,88.00
2023-02-22T16:44:14.610Z,90.40
2023-02-22T16:46:45.865Z,98.43
2023-02-22T16:49:14.105Z,98.17
2023-02-22T16:51:56.467Z,94.50
2023-02-22T16:54:30.339Z,108.90
2023-02-22T16:57:00.673Z,101.17
2023-02-22T16:59:31.781Z,101.00
2023-02-22T17:01:59.202Z,103.33
2023-02-22T17:04:28.849Z,98.63
2023-02-22T17:06:58.985Z,107.43
2023-02-22T17:09:26.459Z,99.57
2023-02-22T17:11:55.538Z,99.97
2023-02-22T17:14:24.439Z,97.60
2023-02-22T17:16:52.657Z,102.10
2023-02-22T17:19:26.654Z,104.60
2023-02-22T17:21:55.652Z,94.77
2023-02-22T17:24:29.305Z,96.33
2023-02-22T17:26:58.852Z,94.27
2023-02-22T17:29:27.843Z,97.37
2023-02-22T17:31:55.296Z,102.70
2023-02-22T17:34:22.404Z,96.90
2023-02-22T17:36:50.316Z,99.73
2023-02-22T17:39:17.389Z,98.07
2023-02-22T17:41:44.980Z,97.43
2023-02-22T17:44:12.382Z,100.63
2023-02-22T17:46:42.218Z,98.93
2023-02-22T17:49:09.225Z,98.87
2023-02-22T17:51:41.001Z,102.37
2023-02-22T17:54:10.530Z,103.07
2023-02-22T17:56:38.260Z,92.03
2023-02-22T17:59:09.101Z,90.83
2023-02-22T18:01:38.880Z,90.10
2023-02-22T18:04:05.914Z,83.13
2023-02-22T18:06:35.445Z,98.67
2023-02-22T18:09:10.587Z,96.33
2023-02-22T18:11:40.098Z,94.87
2023-02-22T18:14:10.160Z,100.83
2023-02-22T18:16:42.504Z,104.87
2023-02-22T18:19:09.691Z,100.47
2023-02-22T18:21:36.814Z,104.67
2023-02-22T18:24:05.106Z,102.93
2023-02-22T18:26:32.194Z,109.17
2023-02-22T18:29:01.143Z,105.43
2023-02-22T18:31:28.193Z,112.73
2023-02-22T18:33:57.571Z,108.70
2023-02-22T18:36:26.534Z,110.47
2023-02-22T18:38:54.970Z,106.87
2023-02-22T18:41:26.694Z,112.17
2023-02-22T18:43:55.564Z,97.47
2023-02-22T18:46:24.609Z,100.50
2023-02-22T18:48:56.646Z,96.33
2023-02-22T18:51:24.859Z,100.60
2023-02-22T18:54:00.433Z,109.77
2023-02-22T18:56:30.120Z,98.70
2023-02-22T18:59:00.289Z,100.63
2023-02-22T19:01:28.144Z,107.30
2023-02-22T19:03:55.923Z,101.10
2023-02-22T19:06:23.548Z,106.70
2023-02-22T19:08:51.253Z,100.77
2023-02-22T19:11:22.316Z,103.97
2023-02-22T19:13:51.794Z,109.60
2023-02-22T19:16:21.590Z,105.50
2023-02-22T19:18:52.592Z,101.30
2023-02-22T19:21:20.899Z,103.57
2023-02-22T19:23:49.085Z,94.67
2023-02-22T19:26:24.177Z,101.27
2023-02-22T19:28:54.454Z,100.43
2023-02-22T19:31:29.822Z,97.27
2023-02-22T19:34:01.762Z,95.73
2023-02-22T19:36:28.829Z,99.27
2023-02-22T19:38:57.467Z,101.00
2023-02-22T19:41:24.598Z,109.03
2023-02-22T19:43:52.928Z,108.13
2023-02-22T19:46:21.604Z,104.30
2023-02-22T19:48:49.325Z,101.57
2023-02-22T19:51:18.795Z,109.13
2023-02-22T19:53:47.241Z,104.93
2023-02-22T19:56:20.017Z,105.97
2023-02-22T19:58:50.182Z,93.23
2023-02-22T20:01:23.233Z,112.27
2023-02-22T20:04:12.781Z,108.10
2023-02-22T20:06:42.682Z,108.50
2023-02-22T20:09:13.093Z,109.63
2023-02-22T20:11:40.962Z,104.10
2023-02-22T20:14:08.002Z,107.80
2023-02-22T20:16:35.828Z,106.97
2023-02-22T20:19:03.216Z,110.63
2023-02-22T20:21:33.559Z,111.13
2023-02-22T20:24:02.637Z,98.07
2023-02-22T20:26:32.060Z,87.23
2023-02-22T20:28:59.713Z,104.87
2023-02-22T20:31:29.690Z,97.63
2023-02-22T20:34:02.628Z,125.97
2023-02-22T20:36:30.492Z,106.03
2023-02-22T20:39:07.547Z,96.67
2023-02-22T20:41:36.189Z,111.17
2023-02-22T20:44:07.375Z,108.30
2023-02-22T20:46:38.124Z,105.60
2023-02-22T20:49:09.685Z,113.30
2023-02-22T20:51:43.501Z,111.70
2023-02-22T20:54:12.755Z,108.90
2023-02-22T20:56:42.573Z,117.87
2023-02-22T20:59:14.296Z,108.13
2023-02-22T21:01:43.503Z,109.47
2023-02-22T21:04:11.609Z,106.20
2023-02-22T21:06:40.238Z,106.80
2023-02-22T21:09:11.917Z,112.10
2023-02-22T21:11:40.124Z,111.00
2023-02-22T21:14:07.493Z,103.67
2023-02-22T21:16:36.867Z,102.50
2023-02-22T21:19:06.954Z,112.03
2023-02-22T21:21:36.442Z,102.47
2023-02-22T21:24:08.093Z,98.43
2023-02-22T21:26:36.951Z,104.37
2023-02-22T21:29:07.237Z,104.50
2023-02-22T21:31:38.001Z,105.00
2023-02-22T21:34:05.669Z,110.47
2023-02-22T21:36:35.915Z,110.20
2023-02-22T21:39:09.817Z,105.97
2023-02-22T21:41:40.468Z,103.73
2023-02-22T21:44:08.278Z,100.13
2023-02-22T21:46:35.380Z,99.07
2023-02-22T21:49:02.805Z,100.60
2023-02-22T21:51:32.140Z,95.33
2023-02-22T21:54:03.373Z,106.07
2023-02-22T21:56:34.459Z,97.37
2023-02-22T21:59:04.612Z,95.03
2023-02-22T22:01:38.665Z,97.67
2023-02-22T22:04:06.856Z,96.13
2023-02-22T22:06:34.940Z,95.50
2023-02-22T22:09:15.258Z,94.00
2023-02-22T22:11:42.619Z,87.07
2023-02-22T22:14:10.678Z,83.20
2023-02-22T22:16:37.755Z,89.00
2023-02-22T22:19:07.745Z,99.53
2023-02-22T22:21:35.038Z,104.10
2023-02-22T22:24:04.005Z,88.47
2023-02-22T22:26:31.052Z,86.77
2023-02-22T22:29:00.325Z,91.70
2023-02-22T22:31:28.891Z,99.97
2023-02-22T22:33:57.576Z,96.43
2023-02-22T22:36:27.101Z,102.20
2023-02-22T22:38:57.647Z,94.83
2023-02-22T22:41:28.213Z,103.53
2023-02-22T22:43:56.226Z,98.23
2023-02-22T22:46:23.416Z,92.00
2023-02-22T22:48:50.623Z,97.70
2023-02-22T22:51:20.922Z,88.37
2023-02-22T22:53:52.565Z,94.33
2023-02-22T22:56:27.502Z,87.17
2023-02-22T22:58:57.604Z,88.47
2023-02-22T23:01:34.566Z,86.07
2023-02-22T23:04:04.476Z,85.03
2023-02-22T23:06:40.992Z,86.83
2023-02-22T23:09:12.758Z,84.23
2023-02-22T23:11:47.669Z,79.27
2023-02-22T23:14:24.283Z,85.40
2023-02-22T23:16:53.541Z,73.07
2023-02-22T23:19:27.685Z,67.97
2023-02-22T23:21:56.020Z,74.70
2023-02-22T23:24:27.394Z,78.20
2023-02-22T23:27:00.384Z,74.83
2023-02-22T23:29:30.044Z,72.00
2023-02-22T23:31:58.713Z,71.53
2023-02-22T23:34:27.766Z,75.63
2023-02-22T23:36:55.031Z,75.13
2023-02-22T23:39:24.408Z,75.30
2023-02-22T23:41:55.233Z,75.43
2023-02-22T23:44:23.787Z,68.80
2023-02-22T23:46:55.720Z,68.53
2023-02-22T23:49:27.769Z,72.87
2023-02-22T23:51:55.003Z,73.43
2023-02-22T23:54:27.104Z,71.73
2023-02-22T23:56:57.103Z,70.77
2023-02-22T23:59:29.354Z,75.27
